createdAt,value
2018-08-04T00:00:26.715Z,27.39
2018-08-04T00:02:54.933Z,27.28
2018-08-04T00:05:23.145Z,27.24
2018-08-04T00:07:51.292Z,27.16
2018-08-04T00:10:21.267Z,27.09
2018-08-04T00:12:51.502Z,27.13
2018-08-04T00:15:20.222Z,27.13
2018-08-04T00:17:49.076Z,27.06
2018-08-04T00:20:17.475Z,26.98
2018-08-04T00:22:46.129Z,26.90
2018-08-04T00:25:14.460Z,26.93
2018-08-04T00:27:42.646Z,26.94
2018-08-04T00:30:13.234Z,26.88
2018-08-04T00:32:42.124Z,26.90
2018-08-04T00:35:11.126Z,26.89
2018-08-04T00:37:39.700Z,26.87
2018-08-04T00:40:10.027Z,26.89
2018-08-04T00:42:38.343Z,26.84
2018-08-04T00:45:06.852Z,26.81
2018-08-04T00:47:35.278Z,26.82
2018-08-04T00:50:03.804Z,26.83
2018-08-04T00:52:31.940Z,26.75
2018-08-04T00:55:00.267Z,26.71
2018-08-04T00:57:28.846Z,26.65
2018-08-04T00:59:57.371Z,26.60
2018-08-04T01:02:25.901Z,26.58
2018-08-04T01:04:54.146Z,26.56
2018-08-04T01:07:22.552Z,26.49
2018-08-04T01:09:50.724Z,26.43
2018-08-04T01:12:18.850Z,26.44
2018-08-04T01:14:47.135Z,26.45
2018-08-04T01:17:15.452Z,26.46
2018-08-04T01:19:43.610Z,26.47
2018-08-04T01:22:11.743Z,26.51
2018-08-04T01:24:40.180Z,26.49
2018-08-04T01:27:08.498Z,26.46
2018-08-04T01:29:36.766Z,26.40
2018-08-04T01:32:04.992Z,26.40
2018-08-04T01:34:33.666Z,26.36
2018-08-04T01:37:01.875Z,26.38
2018-08-04T01:39:30.347Z,26.36
2018-08-04T01:41:58.795Z,26.29
2018-08-04T01:44:27.053Z,26.31
2018-08-04T01:46:55.271Z,26.32
2018-08-04T01:49:23.490Z,26.27
2018-08-04T01:51:51.621Z,26.13
2018-08-04T01:54:19.999Z,26.05
2018-08-04T01:56:48.307Z,26.05
2018-08-04T01:59:16.598Z,26.06
2018-08-04T02:01:45.002Z,25.99
2018-08-04T02:04:13.283Z,25.95
2018-08-04T02:06:41.664Z,25.99
2018-08-04T02:09:11.164Z,25.92
2018-08-04T02:11:39.446Z,25.97
2018-08-04T02:14:07.602Z,25.96
2018-08-04T02:16:35.970Z,25.95
2018-08-04T02:19:04.156Z,25.94
2018-08-04T02:21:32.534Z,25.92
2018-08-04T02:24:00.886Z,25.88
2018-08-04T02:26:29.124Z,25.78
2018-08-04T02:28:57.296Z,25.69
2018-08-04T02:31:25.663Z,25.75
2018-08-04T02:33:53.976Z,25.72
2018-08-04T02:36:22.119Z,25.63
2018-08-04T02:38:50.378Z,25.66
2018-08-04T02:41:18.654Z,25.63
2018-08-04T02:43:46.818Z,25.63
2018-08-04T02:46:15.163Z,25.57
2018-08-04T02:48:43.519Z,25.62
2018-08-04T02:51:11.653Z,25.64
2018-08-04T02:53:39.971Z,25.64
2018-08-04T02:56:08.185Z,25.59
2018-08-04T02:58:36.356Z,25.57
2018-08-04T03:01:04.526Z,25.54
2018-08-04T03:03:32.862Z,25.51
2018-08-04T03:06:01.026Z,25.46
2018-08-04T03:08:29.443Z,25.35
2018-08-04T03:10:57.589Z,25.32
2018-08-04T03:13:25.932Z,25.39
2018-08-04T03:15:54.143Z,25.42
2018-08-04T03:18:22.552Z,25.42
2018-08-04T03:20:50.775Z,25.38
2018-08-04T03:23:18.973Z,25.43
2018-08-04T03:25:47.301Z,25.44
2018-08-04T03:28:15.647Z,25.37
2018-08-04T03:30:44.163Z,25.33
2018-08-04T03:33:12.290Z,25.36
2018-08-04T03:35:40.652Z,25.28
2018-08-04T03:38:08.815Z,25.24
2018-08-04T03:40:37.152Z,25.19
2018-08-04T03:43:05.302Z,25.18
2018-08-04T03:45:33.567Z,25.17
2018-08-04T03:48:01.715Z,25.14
2018-08-04T03:50:29.958Z,25.11
2018-08-04T03:52:58.091Z,25.05
2018-08-04T03:55:26.365Z,24.99
2018-08-04T03:57:54.719Z,24.98
2018-08-04T04:00:22.963Z,24.92
2018-08-04T04:02:51.227Z,24.87
2018-08-04T04:05:20.495Z,24.83
2018-08-04T04:07:48.911Z,24.80
2018-08-04T04:10:17.076Z,24.78
2018-08-04T04:12:45.653Z,24.77
2018-08-04T04:15:13.819Z,24.79
2018-08-04T04:17:45.867Z,24.81
2018-08-04T04:20:14.306Z,24.79
2018-08-04T04:22:42.566Z,24.80
2018-08-04T04:25:10.896Z,24.71
2018-08-04T04:27:39.048Z,24.72
2018-08-04T04:30:07.480Z,24.69
2018-08-04T04:32:35.684Z,24.74
2018-08-04T04:35:04.587Z,24.71
2018-08-04T04:37:32.903Z,24.73
2018-08-04T04:40:01.428Z,24.69
2018-08-04T04:42:29.654Z,24.75
2018-08-04T04:44:57.899Z,24.79
2018-08-04T04:47:26.207Z,24.81
2018-08-04T04:49:54.348Z,24.75
2018-08-04T04:52:23.084Z,24.74
2018-08-04T04:54:51.820Z,24.74
2018-08-04T04:57:20.244Z,24.76
2018-08-04T04:59:48.535Z,24.76
2018-08-04T05:02:16.733Z,24.72
2018-08-04T05:04:44.932Z,24.73
2018-08-04T05:07:13.119Z,24.81
2018-08-04T05:09:41.237Z,24.87
2018-08-04T05:12:09.657Z,24.89
2018-08-04T05:14:37.828Z,24.95
2018-08-04T05:17:06.009Z,25.02
2018-08-04T05:19:34.242Z,25.06
2018-08-04T05:22:02.659Z,25.07
2018-08-04T05:24:31.054Z,25.09
2018-08-04T05:26:59.331Z,25.13
2018-08-04T05:29:27.450Z,25.11
2018-08-04T05:31:55.698Z,25.17
2018-08-04T05:34:23.971Z,25.23
2018-08-04T05:36:52.216Z,25.28
2018-08-04T05:39:20.516Z,25.27
2018-08-04T05:41:48.739Z,25.32
2018-08-04T05:44:17.361Z,25.34
2018-08-04T05:46:45.587Z,25.38
2018-08-04T05:49:14.080Z,25.44
2018-08-04T05:51:42.248Z,25.51
2018-08-04T05:54:10.427Z,25.61
2018-08-04T05:56:38.706Z,25.63
2018-08-04T05:59:08.611Z,25.64
2018-08-04T06:01:36.754Z,25.69
2018-08-04T06:04:05.136Z,25.70
2018-08-04T06:06:33.340Z,25.74
2018-08-04T06:09:01.715Z,25.78
2018-08-04T06:11:30.064Z,25.82
2018-08-04T06:13:58.404Z,25.85
2018-08-04T06:16:26.708Z,25.89
2018-08-04T06:18:55.609Z,25.93
2018-08-04T06:21:23.739Z,25.93
2018-08-04T06:23:51.902Z,25.97
2018-08-04T06:26:20.250Z,26.01
2018-08-04T06:28:48.512Z,26.03
2018-08-04T06:31:16.844Z,26.08
2018-08-04T06:33:45.299Z,26.13
2018-08-04T06:36:13.774Z,26.16
2018-08-04T06:38:42.042Z,26.20
2018-08-04T06:41:10.509Z,26.24
2018-08-04T06:43:38.803Z,26.28
2018-08-04T06:46:07.196Z,26.31
2018-08-04T06:48:35.692Z,26.36
2018-08-04T06:51:04.051Z,26.39
2018-08-04T06:53:32.396Z,26.41
2018-08-04T06:56:01.092Z,26.46
2018-08-04T06:58:29.480Z,26.52
2018-08-04T07:00:57.699Z,26.57
2018-08-04T07:03:25.957Z,26.58
2018-08-04T07:05:54.495Z,26.62
2018-08-04T07:08:22.890Z,26.68
2018-08-04T07:10:51.141Z,26.71
2018-08-04T07:13:19.702Z,26.75
2018-08-04T07:15:48.203Z,26.79
2018-08-04T07:18:16.287Z,26.80
2018-08-04T07:20:44.701Z,26.87
2018-08-04T07:23:12.919Z,26.90
2018-08-04T07:25:41.397Z,26.93
2018-08-04T07:28:09.835Z,26.98
2018-08-04T07:30:38.054Z,27.00
2018-08-04T07:33:07.346Z,27.04
2018-08-04T07:35:35.810Z,27.08
2018-08-04T07:38:04.042Z,27.11
2018-08-04T07:40:32.378Z,27.13
2018-08-04T07:43:00.732Z,27.15
2018-08-04T07:45:29.204Z,27.19
2018-08-04T07:47:57.407Z,27.21
2018-08-04T07:50:25.892Z,27.23
2018-08-04T07:52:54.060Z,27.25
2018-08-04T07:55:22.483Z,27.28
2018-08-04T07:57:50.814Z,27.29
2018-08-04T08:00:18.944Z,27.33
2018-08-04T08:02:47.141Z,27.40
2018-08-04T08:05:15.372Z,27.44
2018-08-04T08:07:43.482Z,27.51
2018-08-04T08:10:11.740Z,27.58
2018-08-04T08:12:39.871Z,27.66
2018-08-04T08:15:08.795Z,27.71
2018-08-04T08:17:37.174Z,27.73
2018-08-04T08:20:05.420Z,27.78
2018-08-04T08:22:37.332Z,27.83
2018-08-04T08:25:06.090Z,27.87
2018-08-04T08:27:34.287Z,27.91
2018-08-04T08:30:02.546Z,27.96
2018-08-04T08:32:31.086Z,28.01
2018-08-04T08:34:59.717Z,28.04
2018-08-04T08:37:27.943Z,28.10
2018-08-04T08:39:56.763Z,28.13
2018-08-04T08:42:25.228Z,28.17
2018-08-04T08:44:53.741Z,28.21
2018-08-04T08:47:21.930Z,28.26
2018-08-04T08:49:50.107Z,28.30
2018-08-04T08:52:18.314Z,28.33
2018-08-04T08:54:46.610Z,28.37
2018-08-04T08:57:14.914Z,28.38
2018-08-04T08:59:43.080Z,28.43
2018-08-04T09:02:11.326Z,28.47
2018-08-04T09:04:39.456Z,28.50
2018-08-04T09:07:07.595Z,28.52
2018-08-04T09:09:35.938Z,28.53
2018-08-04T09:12:04.022Z,28.58
2018-08-04T09:14:32.148Z,28.63
2018-08-04T09:17:00.536Z,28.67
2018-08-04T09:19:28.751Z,28.70
2018-08-04T09:21:57.207Z,28.72
2018-08-04T09:24:26.022Z,28.78
2018-08-04T09:26:54.296Z,28.80
2018-08-04T09:29:22.808Z,28.86
2018-08-04T09:31:51.611Z,28.94
2018-08-04T09:34:19.974Z,29.01
2018-08-04T09:36:48.130Z,29.08
2018-08-04T09:39:16.362Z,29.08
2018-08-04T09:41:44.668Z,29.09
2018-08-04T09:44:12.864Z,29.10
2018-08-04T09:46:41.694Z,29.09
2018-08-04T09:49:09.797Z,29.08
2018-08-04T09:51:38.335Z,29.05
2018-08-04T09:54:06.443Z,29.04
2018-08-04T09:56:34.733Z,29.04
2018-08-04T09:59:02.962Z,29.06
2018-08-04T10:01:38.184Z,29.06
2018-08-04T10:04:06.938Z,29.05
2018-08-04T10:06:35.192Z,29.05
2018-08-04T10:09:04.816Z,29.03
2018-08-04T10:11:33.024Z,29.02
2018-08-04T10:14:01.283Z,28.99
2018-08-04T10:16:29.424Z,28.98
2018-08-04T10:18:57.607Z,28.96
2018-08-04T10:21:25.996Z,28.94
2018-08-04T10:23:54.299Z,28.93
2018-08-04T10:26:22.536Z,28.92
2018-08-04T10:28:50.635Z,28.93
2018-08-04T10:31:18.783Z,28.93
2018-08-04T10:33:47.044Z,28.92
2018-08-04T10:36:15.199Z,28.90
2018-08-04T10:38:43.465Z,28.91
2018-08-04T10:41:12.236Z,28.90
2018-08-04T10:43:40.380Z,28.88
2018-08-04T10:46:08.552Z,28.88
2018-08-04T10:48:36.676Z,28.89
2018-08-04T10:51:05.026Z,28.88
2018-08-04T10:53:33.262Z,28.90
2018-08-04T10:56:01.590Z,28.91
2018-08-04T10:58:29.791Z,28.90
2018-08-04T11:00:57.906Z,28.90
2018-08-04T11:03:26.184Z,28.88
2018-08-04T11:05:56.615Z,28.86
2018-08-04T11:08:25.067Z,28.86
2018-08-04T11:10:53.857Z,28.84
2018-08-04T11:13:22.010Z,28.84
2018-08-04T11:15:50.244Z,28.83
2018-08-04T11:18:18.428Z,28.84
2018-08-04T11:20:47.061Z,28.83
2018-08-04T11:23:15.818Z,28.84
2018-08-04T11:25:44.031Z,28.86
2018-08-04T11:28:12.508Z,28.87
2018-08-04T11:30:41.143Z,28.89
2018-08-04T11:33:09.352Z,28.89
2018-08-04T11:35:37.651Z,28.90
2018-08-04T11:38:06.037Z,28.90
2018-08-04T11:40:34.190Z,28.90
2018-08-04T11:43:02.390Z,28.90
2018-08-04T11:45:31.362Z,28.92
2018-08-04T11:47:59.442Z,28.92
2018-08-04T11:50:27.783Z,28.95
2018-08-04T11:52:55.923Z,29.00
2018-08-04T11:55:24.256Z,29.06
2018-08-04T11:57:52.370Z,29.13
2018-08-04T12:00:20.572Z,29.22
2018-08-04T12:02:49.039Z,29.22
2018-08-04T12:05:17.403Z,29.23
2018-08-04T12:07:45.707Z,29.28
2018-08-04T12:10:13.856Z,29.30
2018-08-04T12:12:42.195Z,29.32
2018-08-04T12:15:10.377Z,29.36
2018-08-04T12:17:38.516Z,29.37
2018-08-04T12:20:06.807Z,29.35
2018-08-04T12:22:35.359Z,29.37
2018-08-04T12:25:03.631Z,29.37
2018-08-04T12:27:31.898Z,29.38
2018-08-04T12:30:00.171Z,29.40
2018-08-04T12:32:28.274Z,29.45
2018-08-04T12:34:56.948Z,29.52
2018-08-04T12:37:25.236Z,29.51
2018-08-04T12:39:53.752Z,29.50
2018-08-04T12:42:21.847Z,29.50
2018-08-04T12:44:50.088Z,29.55
2018-08-04T12:47:18.223Z,29.60
2018-08-04T12:49:47.512Z,29.63
2018-08-04T12:52:15.767Z,29.63
2018-08-04T12:54:44.210Z,29.66
2018-08-04T12:57:12.415Z,29.68
2018-08-04T12:59:40.627Z,29.64
2018-08-04T13:02:08.854Z,29.63
2018-08-04T13:04:38.159Z,29.63
2018-08-04T13:07:06.552Z,29.62
2018-08-04T13:09:34.690Z,29.61
2018-08-04T13:12:03.004Z,29.61
2018-08-04T13:14:31.080Z,29.58
2018-08-04T13:16:59.539Z,29.58
2018-08-04T13:19:28.055Z,29.56
2018-08-04T13:21:56.426Z,29.53
2018-08-04T13:24:24.608Z,29.54
2018-08-04T13:26:53.059Z,29.51
2018-08-04T13:29:21.845Z,29.49
2018-08-04T13:31:50.041Z,29.49
2018-08-04T13:34:18.551Z,29.63
2018-08-04T13:36:47.513Z,29.75
2018-08-04T13:39:15.792Z,29.78
2018-08-04T13:41:44.057Z,29.80
2018-08-04T13:44:12.653Z,29.80
2018-08-04T13:46:41.243Z,29.83
2018-08-04T13:49:10.003Z,29.85
2018-08-04T13:51:38.733Z,29.85
2018-08-04T13:54:07.688Z,29.85
2018-08-04T13:56:35.948Z,29.84
2018-08-04T13:59:04.192Z,29.80
2018-08-04T14:01:32.957Z,29.80
2018-08-04T14:04:01.190Z,29.81
2018-08-04T14:06:29.813Z,29.79
2018-08-04T14:08:57.946Z,29.79
2018-08-04T14:11:26.469Z,29.79
2018-08-04T14:13:56.529Z,29.78
2018-08-04T14:16:26.002Z,29.78
2018-08-04T14:18:54.436Z,29.78
2018-08-04T14:21:22.783Z,29.80
2018-08-04T14:23:51.350Z,29.82
2018-08-04T14:26:19.707Z,29.85
2018-08-04T14:28:47.976Z,29.87
2018-08-04T14:31:16.177Z,29.85
2018-08-04T14:33:44.651Z,29.87
2018-08-04T14:36:13.418Z,29.87
2018-08-04T14:38:41.527Z,29.86
2018-08-04T14:41:10.147Z,29.88
2018-08-04T14:43:38.890Z,29.89
2018-08-04T14:46:07.754Z,29.86
2018-08-04T14:48:36.225Z,29.87
2018-08-04T14:51:04.632Z,29.89
2018-08-04T14:53:32.899Z,29.91
2018-08-04T14:56:01.543Z,29.92
2018-08-04T14:58:29.867Z,29.94
2018-08-04T15:00:58.171Z,29.96
2018-08-04T15:03:26.674Z,29.96
2018-08-04T15:05:54.908Z,29.97
2018-08-04T15:08:23.110Z,29.97
2018-08-04T15:10:51.367Z,29.95
2018-08-04T15:13:19.655Z,29.98
2018-08-04T15:15:48.324Z,30.00
2018-08-04T15:18:16.793Z,29.98
2018-08-04T15:20:45.144Z,29.96
2018-08-04T15:23:13.872Z,29.92
2018-08-04T15:25:42.384Z,29.87
2018-08-04T15:28:10.909Z,29.87
2018-08-04T15:30:40.321Z,29.88
2018-08-04T15:33:08.916Z,29.88
2018-08-04T15:35:37.738Z,29.86
2018-08-04T15:38:05.944Z,29.83
2018-08-04T15:40:34.203Z,29.83
2018-08-04T15:43:13.604Z,29.84
2018-08-04T15:45:47.156Z,29.84
2018-08-04T15:48:17.341Z,29.85
2018-08-04T15:50:48.099Z,29.87
2018-08-04T15:53:18.331Z,29.88
2018-08-04T15:55:46.893Z,29.88
2018-08-04T16:01:16.138Z,29.87
2018-08-04T16:03:45.260Z,29.83
2018-08-04T16:06:15.873Z,29.84
2018-08-04T16:08:47.362Z,29.84
2018-08-04T16:11:40.071Z,29.83
2018-08-04T16:14:22.780Z,29.80
2018-08-04T16:16:51.707Z,29.80
2018-08-04T16:19:21.452Z,29.80
2018-08-04T16:21:49.627Z,29.83
2018-08-04T16:24:17.926Z,29.84
2018-08-04T16:26:51.799Z,29.84
2018-08-04T16:29:20.191Z,29.85
2018-08-04T16:31:48.700Z,29.86
2018-08-04T16:34:16.901Z,29.86
2018-08-04T16:36:45.408Z,29.84
2018-08-04T16:39:13.927Z,29.83
2018-08-04T16:41:42.280Z,29.83
2018-08-04T16:44:10.753Z,29.84
2018-08-04T16:46:39.108Z,29.85
2018-08-04T16:49:07.355Z,29.87
2018-08-04T16:51:37.412Z,29.86
2018-08-04T16:54:06.124Z,29.89
2018-08-04T16:56:34.727Z,29.88
2018-08-04T16:59:02.959Z,29.90
2018-08-04T17:01:31.291Z,29.89
2018-08-04T17:03:59.581Z,29.88
2018-08-04T17:06:27.843Z,29.89
2018-08-04T17:08:56.391Z,29.90
2018-08-04T17:11:24.603Z,29.91
2018-08-04T17:13:53.164Z,29.91
2018-08-04T17:16:22.190Z,29.93
2018-08-04T17:18:50.405Z,29.94
2018-08-04T17:21:19.087Z,29.94
2018-08-04T17:23:47.369Z,29.96
2018-08-04T17:26:15.640Z,29.98
2018-08-04T17:28:44.101Z,30.00
2018-08-04T17:31:12.349Z,30.02
2018-08-04T17:33:40.691Z,30.05
2018-08-04T17:36:08.860Z,30.06
2018-08-04T17:38:37.149Z,30.07
2018-08-04T17:41:05.562Z,30.09
2018-08-04T17:43:34.528Z,30.09
2018-08-04T17:46:02.811Z,30.11
2018-08-04T17:48:31.269Z,30.10
2018-08-04T17:50:59.467Z,30.11
2018-08-04T17:53:28.472Z,30.11
2018-08-04T17:55:57.020Z,30.08
2018-08-04T17:58:25.687Z,30.08
2018-08-04T18:00:53.921Z,30.07
2018-08-04T18:03:22.152Z,30.05
2018-08-04T18:05:50.844Z,30.05
2018-08-04T18:08:19.230Z,30.04
2018-08-04T18:10:48.131Z,30.04
2018-08-04T18:13:17.763Z,30.02
2018-08-04T18:15:45.951Z,30.02
2018-08-04T18:18:15.576Z,30.01
2018-08-04T18:20:45.663Z,30.00
2018-08-04T18:23:13.828Z,30.00
2018-08-04T18:25:42.437Z,30.00
2018-08-04T18:28:11.245Z,30.00
2018-08-04T18:30:39.424Z,29.98
2018-08-04T18:33:08.079Z,29.98
2018-08-04T18:35:36.280Z,29.95
2018-08-04T18:38:04.834Z,29.95
2018-08-04T18:40:33.107Z,29.93
2018-08-04T18:43:01.213Z,29.93
2018-08-04T18:45:29.426Z,29.95
2018-08-04T18:47:58.046Z,29.93
2018-08-04T18:50:26.486Z,29.93
2018-08-04T18:52:54.863Z,29.93
2018-08-04T18:55:23.184Z,29.91
2018-08-04T18:57:52.096Z,29.87
2018-08-04T19:00:22.176Z,29.87
2018-08-04T19:02:50.739Z,29.87
2018-08-04T19:05:19.107Z,29.85
2018-08-04T19:07:47.545Z,29.83
2018-08-04T19:10:15.940Z,29.79
2018-08-04T19:12:44.165Z,29.77
2018-08-04T19:15:12.738Z,29.76
2018-08-04T19:17:40.970Z,29.77
2018-08-04T19:20:09.237Z,29.77
2018-08-04T19:22:37.621Z,29.78
2018-08-04T19:25:06.591Z,29.80
2018-08-04T19:27:34.867Z,29.82
2018-08-04T19:30:03.682Z,29.83
2018-08-04T19:32:32.199Z,29.80
2018-08-04T19:35:00.673Z,29.81
2018-08-04T19:37:28.913Z,29.80
2018-08-04T19:39:57.322Z,29.81
2018-08-04T19:42:26.341Z,29.81
2018-08-04T19:44:54.766Z,29.83
2018-08-04T19:47:23.083Z,29.82
2018-08-04T19:49:52.526Z,29.82
2018-08-04T19:52:20.901Z,29.82
2018-08-04T19:54:50.178Z,29.82
2018-08-04T19:57:18.697Z,29.83
2018-08-04T19:59:47.127Z,29.83
2018-08-04T20:02:15.697Z,29.84
2018-08-04T20:04:45.786Z,29.83
2018-08-04T20:07:21.432Z,29.85
2018-08-04T20:09:50.444Z,29.86
2018-08-04T20:12:18.754Z,29.86
2018-08-04T20:14:47.022Z,29.86
2018-08-04T20:17:15.713Z,29.85
2018-08-04T20:19:43.907Z,29.85
2018-08-04T20:22:13.980Z,29.86
2018-08-04T20:24:42.396Z,29.86
2018-08-04T20:27:10.600Z,29.77
2018-08-04T20:29:38.786Z,29.63
2018-08-04T20:32:07.516Z,29.54
2018-08-04T20:34:36.403Z,29.52
2018-08-04T20:37:04.732Z,29.46
2018-08-04T20:39:33.151Z,29.39
2018-08-04T20:42:01.610Z,29.38
2018-08-04T20:44:30.150Z,29.37
2018-08-04T20:46:58.388Z,29.36
2018-08-04T20:49:26.660Z,29.32
2018-08-04T20:51:55.162Z,29.27
2018-08-04T20:54:23.324Z,29.25
2018-08-04T20:56:51.768Z,29.20
2018-08-04T20:59:19.914Z,29.21
2018-08-04T21:01:56.855Z,29.19
2018-08-04T21:04:25.122Z,29.16
2018-08-04T21:06:53.419Z,29.15
2018-08-04T21:09:22.303Z,29.12
2018-08-04T21:11:52.656Z,29.12
2018-08-04T21:14:22.141Z,29.07
2018-08-04T21:16:51.143Z,29.03
2018-08-04T21:19:20.641Z,29.02
2018-08-04T21:21:48.946Z,29.02
2018-08-04T21:24:18.198Z,29.00
2018-08-04T21:26:46.529Z,28.96
2018-08-04T21:29:14.944Z,28.92
2018-08-04T21:31:43.231Z,28.86
2018-08-04T21:34:12.201Z,28.82
2018-08-04T21:36:40.595Z,28.78
2018-08-04T21:39:11.584Z,28.72
2018-08-04T21:41:39.827Z,28.68
2018-08-04T21:44:07.986Z,28.69
2018-08-04T21:46:41.288Z,28.64
2018-08-04T21:49:09.775Z,28.62
2018-08-04T21:51:38.232Z,28.61
2018-08-04T21:54:06.330Z,28.58
2018-08-04T21:56:34.527Z,28.56
2018-08-04T21:59:02.775Z,28.54
2018-08-04T22:01:31.317Z,28.50
2018-08-04T22:03:59.575Z,28.44
2018-08-04T22:06:54.895Z,28.40
2018-08-04T22:09:24.708Z,28.38
2018-08-04T22:11:52.880Z,28.37
2018-08-04T22:14:21.478Z,28.36
2018-08-04T22:16:49.696Z,28.28
2018-08-04T22:19:18.046Z,28.19
2018-08-04T22:21:46.240Z,28.17
2018-08-04T22:24:14.524Z,28.18
2018-08-04T22:26:42.694Z,28.16
2018-08-04T22:29:10.972Z,28.17
2018-08-04T22:31:39.316Z,28.19
2018-08-04T22:34:07.872Z,28.20
2018-08-04T22:36:36.070Z,28.21
2018-08-04T22:39:05.425Z,28.22
2018-08-04T22:41:33.821Z,28.20
2018-08-04T22:44:01.955Z,28.21
2018-08-04T22:46:30.298Z,28.20
2018-08-04T22:48:58.477Z,28.19
2018-08-04T22:51:28.151Z,28.21
2018-08-04T22:53:57.403Z,28.19
2018-08-04T22:56:26.039Z,28.18
2018-08-04T22:58:54.506Z,28.18
2018-08-04T23:01:29.380Z,28.17
2018-08-04T23:03:57.926Z,28.14
2018-08-04T23:06:26.072Z,28.11
2018-08-04T23:08:54.283Z,28.10
2018-08-04T23:11:22.813Z,28.11
2018-08-04T23:13:51.635Z,28.11
2018-08-04T23:16:20.311Z,28.10
2018-08-04T23:18:48.870Z,28.10
2018-08-04T23:21:17.358Z,28.07
2018-08-04T23:23:45.929Z,28.06
2018-08-04T23:26:15.195Z,28.00
2018-08-04T23:28:43.708Z,28.01
2018-08-04T23:31:12.859Z,28.02
2018-08-04T23:33:41.407Z,28.00
2018-08-04T23:36:09.691Z,27.98
2018-08-04T23:38:37.963Z,27.95
2018-08-04T23:41:06.419Z,27.95
2018-08-04T23:43:34.635Z,27.94
2018-08-04T23:46:02.860Z,27.93
2018-08-04T23:48:31.145Z,27.89
2018-08-04T23:51:00.164Z,27.83
2018-08-04T23:53:28.428Z,27.75
2018-08-04T23:55:57.253Z,27.73
2018-08-04T23:58:25.659Z,27.68
